Time;durP1;ratioP1;P1;durP2;ratioP2;P2;SDS_P1;SDS_P2;PMS_P1;PMS_P2;Temp;Humidity;BMP_temperature;BMP_pressure;BME280_temperature;BME280_humidity;BME280_pressure;Samples;Min_cycle;Max_cycle;Signal;HPM_P1;HPM_P2
2022/03/22 00:00:11;;;;;;;13.50;5.90;;;;;;;9.40;22.57;100636.97;4471237;32;20065;-78
2022/03/22 00:02:37;;;;;;;15.02;6.22;;;;;;;9.40;22.49;100634.34;4471190;32;20076;-78
2022/03/22 00:05:03;;;;;;;14.40;6.53;;;;;;;9.39;22.34;100644.00;4471277;32;20131;-78
2022/03/22 00:07:28;;;;;;;14.90;5.60;;;;;;;9.37;22.26;100634.41;4457076;32;20503;-78
2022/03/22 00:09:54;;;;;;;13.50;5.78;;;;;;;9.37;22.34;100644.94;4469620;32;20127;-80
2022/03/22 00:12:19;;;;;;;13.45;5.93;;;;;;;9.35;22.41;100637.06;4456692;32;20144;-79
2022/03/22 00:14:45;;;;;;;14.32;5.85;;;;;;;9.35;22.67;100634.44;4470902;32;20132;-78
2022/03/22 00:17:10;;;;;;;16.98;6.30;;;;;;;9.36;23.03;100635.28;4471231;32;20156;-78
2022/03/22 00:19:36;;;;;;;15.00;5.85;;;;;;;9.30;23.31;100636.28;4471055;32;20096;-79
2022/03/22 00:22:02;;;;;;;12.90;5.80;;;;;;;9.27;23.42;100633.69;4470868;32;20088;-79
2022/03/22 00:24:28;;;;;;;14.30;6.40;;;;;;;9.26;23.43;100629.34;4470454;32;20165;-79
2022/03/22 00:26:54;;;;;;;14.57;6.60;;;;;;;9.26;23.44;100629.34;4471086;32;20522;-78
2022/03/22 00:29:20;;;;;;;16.27;6.50;;;;;;;9.24;23.34;100636.41;4469582;32;20081;-79
2022/03/22 00:31:45;;;;;;;14.00;6.05;;;;;;;9.21;23.36;100625.94;4440960;32;20468;-78
2022/03/22 00:34:13;;;;;;;15.50;6.78;;;;;;;9.15;23.48;100628.69;4455257;32;20116;-79
2022/03/22 00:36:40;;;;;;;16.25;6.47;;;;;;;9.16;23.47;100631.28;4455342;32;20538;-78
2022/03/22 00:39:06;;;;;;;15.40;6.37;;;;;;;9.15;23.35;100629.53;4445533;32;20093;-79
2022/03/22 00:41:31;;;;;;;18.00;6.97;;;;;;;9.14;23.24;100625.19;4455207;32;20326;-79
2022/03/22 00:43:56;;;;;;;14.07;6.12;;;;;;;9.16;23.20;100626.03;4441156;32;20181;-80
2022/03/22 00:46:22;;;;;;;14.90;6.18;;;;;;;9.16;23.34;100625.19;4455309;32;20391;-79
2022/03/22 00:48:48;;;;;;;15.27;6.30;;;;;;;9.16;23.42;100626.03;4470072;32;20136;-79
2022/03/22 00:51:14;;;;;;;13.35;6.57;;;;;;;9.17;23.04;100626.87;4470825;32;20085;-79
2022/03/22 00:53:39;;;;;;;15.07;6.60;;;;;;;9.15;23.09;100629.53;4470614;32;20450;-79
2022/03/22 00:56:06;;;;;;;15.38;6.53;;;;;;;9.17;23.12;100624.25;4470564;32;20522;-78
2022/03/22 00:58:31;;;;;;;15.45;5.75;;;;;;;9.13;23.02;100623.44;4443661;32;20155;-79
2022/03/22 01:00:56;;;;;;;16.73;6.25;;;;;;;9.13;22.99;100622.59;4470630;32;20416;-78
2022/03/22 01:03:22;;;;;;;16.23;6.18;;;;;;;9.12;23.01;100624.38;4470480;32;20136;-78
2022/03/22 01:05:50;;;;;;;14.45;6.50;;;;;;;9.11;23.11;100622.63;4468933;32;20111;-78
2022/03/22 01:08:16;;;;;;;16.67;6.00;;;;;;;9.10;23.17;100615.63;4470186;32;20232;-78
2022/03/22 01:10:45;;;;;;;15.98;6.18;;;;;;;9.09;23.23;100618.28;4456343;32;20118;-77
2022/03/22 01:13:11;;;;;;;14.20;6.12;;;;;;;9.09;23.28;100620.91;4470337;32;20425;-79
2022/03/22 01:15:37;;;;;;;16.25;6.90;;;;;;;9.07;23.34;100609.56;4455885;32;20128;-77
2022/03/22 01:18:07;;;;;;;14.52;6.53;;;;;;;9.06;23.37;100613.97;4470316;32;20092;-79
2022/03/22 01:20:37;;;;;;;16.15;6.15;;;;;;;9.05;23.45;100609.59;4470329;32;20096;-80
2022/03/22 01:23:04;;;;;;;15.63;6.35;;;;;;;9.07;23.62;100612.19;4456308;32;20159;-79
2022/03/22 01:25:32;;;;;;;12.65;5.68;;;;;;;9.07;23.71;100614.81;4468342;32;20152;-78
2022/03/22 01:27:58;;;;;;;14.18;5.82;;;;;;;9.08;23.62;100608.66;4456137;32;20184;-79
2022/03/22 01:30:24;;;;;;;12.43;5.72;;;;;;;9.11;23.44;100612.09;4470209;32;20099;-80
2022/03/22 01:32:51;;;;;;;13.27;5.85;;;;;;;9.10;23.04;100610.37;4470113;32;20097;-79
2022/03/22 01:35:17;;;;;;;11.57;5.15;;;;;;;9.11;23.02;100611.25;4471202;32;20110;-79
2022/03/22 01:37:47;;;;;;;14.50;6.37;;;;;;;9.13;22.82;100610.31;4472447;32;20093;-79
2022/03/22 01:40:13;;;;;;;14.75;5.28;;;;;;;9.13;22.56;100605.03;4472463;32;20081;-79
2022/03/22 01:42:38;;;;;;;13.50;5.47;;;;;;;9.12;22.64;100607.72;4451022;32;20113;-80
2022/03/22 01:45:07;;;;;;;12.95;6.35;;;;;;;9.12;22.58;100607.72;4456601;32;20458;-79
2022/03/22 01:47:34;;;;;;;12.93;5.30;;;;;;;9.13;22.59;100609.44;4442727;32;20152;-79
2022/03/22 01:49:59;;;;;;;13.77;5.72;;;;;;;9.16;22.72;100601.50;4456411;32;20114;-78
2022/03/22 01:52:25;;;;;;;12.95;5.60;;;;;;;9.14;22.53;100604.16;4442415;32;20128;-78
2022/03/22 01:54:52;;;;;;;13.30;5.62;;;;;;;9.14;22.66;100598.03;4456521;32;20174;-77
2022/03/22 01:57:18;;;;;;;13.47;5.93;;;;;;;9.13;22.89;100598.94;4442482;32;20085;-78
2022/03/22 01:59:45;;;;;;;13.73;6.03;;;;;;;9.12;23.12;100592.81;4456683;32;20085;-79
2022/03/22 02:07:40;;;;;;;14.30;5.95;;;;;;;9.03;23.56;100590.34;4456583;32;20158;-79
2022/03/22 02:10:06;;;;;;;14.35;5.50;;;;;;;9.03;23.50;100588.59;4442186;32;20128;-79
2022/03/22 02:12:32;;;;;;;13.13;5.45;;;;;;;9.02;23.45;100589.50;4442194;32;20124;-79
2022/03/22 02:14:57;;;;;;;15.02;6.35;;;;;;;9.02;23.49;100588.59;4456114;32;20093;-78
2022/03/22 02:17:23;;;;;;;14.57;5.57;;;;;;;8.99;23.49;100588.69;4442250;32;20093;-80
2022/03/22 02:19:48;;;;;;;13.30;5.32;;;;;;;9.03;22.94;100588.59;4466378;32;20116;-80
2022/03/22 02:22:20;;;;;;;15.20;5.50;;;;;;;9.01;22.60;100584.25;4471915;32;20097;-79
2022/03/22 02:24:45;;;;;;;12.77;4.85;;;;;;;9.07;22.22;100586.75;4471716;32;20118;-78
2022/03/22 02:27:11;;;;;;;14.43;5.68;;;;;;;9.08;22.20;100585.87;4471976;32;20089;-79
2022/03/22 02:29:36;;;;;;;13.05;5.68;;;;;;;9.11;22.18;100585.81;4471837;32;20088;-80
2022/03/22 02:32:09;;;;;;;13.20;5.82;;;;;;;9.12;21.64;100587.56;4471902;32;20101;-79
2022/03/22 02:34:37;;;;;;;12.57;5.57;;;;;;;9.19;22.10;100583.91;4471983;32;20100;-79
2022/03/22 02:37:04;;;;;;;12.85;5.45;;;;;;;9.29;21.99;100586.34;4470422;32;20435;-79
2022/03/22 02:39:31;;;;;;;12.43;5.32;;;;;;;9.22;21.61;100582.97;4471766;32;20080;-79
2022/03/22 02:41:57;;;;;;;14.30;5.65;;;;;;;9.31;21.63;100585.44;4457723;32;20100;-79
2022/03/22 02:44:22;;;;;;;12.43;4.97;;;;;;;9.29;21.87;100583.69;4457651;32;20384;-79
2022/03/22 02:46:48;;;;;;;12.37;5.50;;;;;;;9.35;21.82;100583.56;4471515;32;20080;-80
2022/03/22 02:49:13;;;;;;;13.68;5.37;;;;;;;9.39;21.84;100577.38;4471786;32;20104;-79
2022/03/22 02:51:40;;;;;;;14.30;5.50;;;;;;;9.38;21.85;100583.53;4471733;32;20101;-79
2022/03/22 02:54:05;;;;;;;14.07;5.62;;;;;;;9.36;21.99;100580.91;4452989;32;20101;-79
2022/03/22 02:56:31;;;;;;;14.85;5.80;;;;;;;9.40;21.95;100579.09;4456368;32;20153;-78
2022/03/22 02:59:00;;;;;;;14.55;5.70;;;;;;;9.40;21.88;100584.34;4456442;32;20096;-79
2022/03/22 03:01:25;;;;;;;13.65;5.62;;;;;;;9.41;21.86;100581.69;4456301;32;20110;-78
2022/03/22 03:03:50;;;;;;;14.85;5.75;;;;;;;9.44;21.37;100581.66;4456199;32;20089;-79
2022/03/22 03:06:16;;;;;;;13.27;5.60;;;;;;;9.44;21.70;100588.66;4456267;32;20146;-80
2022/03/22 03:08:42;;;;;;;12.15;5.03;;;;;;;9.45;22.12;100591.25;4456180;32;20081;-79
2022/03/22 03:11:08;;;;;;;12.75;5.65;;;;;;;9.49;21.97;100591.19;4456273;32;20113;-80
2022/03/22 03:16:18;;;;;;;14.93;5.78;;;;;;;9.24;21.49;100600.44;4456092;32;20145;-79
2022/03/22 03:18:44;;;;;;;15.30;5.90;;;;;;;9.25;21.31;100596.94;4455891;32;20507;-80
2022/03/22 03:21:09;;;;;;;13.25;5.40;;;;;;;9.39;20.93;100599.28;4456073;32;20120;-79
2022/03/22 03:23:35;;;;;;;15.27;5.95;;;;;;;9.42;21.11;100598.34;4455812;32;20776;-78
2022/03/22 03:26:00;;;;;;;12.77;5.93;;;;;;;9.54;21.16;100605.09;4455419;32;20080;-79
2022/03/22 03:28:26;;;;;;;14.90;5.60;;;;;;;9.33;21.26;100606.41;4456634;32;20407;-78
2022/03/22 03:30:51;;;;;;;14.18;5.75;;;;;;;9.49;21.27;100602.59;4441768;32;20372;-79
2022/03/22 03:33:16;;;;;;;14.45;6.22;;;;;;;9.48;21.46;100608.72;4455921;32;20116;-78
2022/03/22 03:35:42;;;;;;;13.18;6.32;;;;;;;9.44;21.27;100602.69;4455876;32;20093;-79
2022/03/22 03:38:08;;;;;;;16.15;6.05;;;;;;;9.48;21.50;100610.50;4455838;32;20097;-79
2022/03/22 03:43:17;;;;;;;14.77;6.47;;;;;;;9.55;21.75;100606.84;4443999;32;20123;-79
2022/03/22 03:48:26;;;;;;;15.25;7.07;;;;;;;9.51;21.51;100599.94;4455769;32;20127;-78
2022/03/22 03:50:52;;;;;;;15.27;6.90;;;;;;;9.50;21.44;100596.41;4455812;32;20101;-79
2022/03/22 03:53:17;;;;;;;16.98;7.53;;;;;;;9.51;21.64;100598.16;4455667;32;20111;-79
2022/03/22 03:55:43;;;;;;;15.88;7.07;;;;;;;9.47;21.69;100598.25;4441844;32;20111;-79
2022/03/22 03:58:08;;;;;;;16.45;7.12;;;;;;;9.55;21.79;100596.31;4454674;32;20398;-79
2022/03/22 04:00:33;;;;;;;16.80;7.35;;;;;;;9.55;21.90;100601.59;4428847;32;20464;-78
2022/03/22 04:02:59;;;;;;;18.48;7.70;;;;;;;9.54;21.94;100605.09;4455687;32;20088;-79
2022/03/22 04:05:25;;;;;;;14.85;7.20;;;;;;;9.52;21.84;100597.28;4455321;32;20117;-79
2022/03/22 04:07:50;;;;;;;17.90;8.07;;;;;;;9.54;21.97;100606.00;4455571;32;20168;-79
2022/03/22 04:10:16;;;;;;;16.15;7.18;;;;;;;9.53;22.05;100606.00;4455496;32;20108;-79
2022/03/22 04:12:42;;;;;;;16.40;7.55;;;;;;;9.28;21.98;100618.81;4455487;32;20121;-78
2022/03/22 04:15:08;;;;;;;17.25;8.10;;;;;;;9.28;22.33;100613.53;4455681;32;20092;-80
2022/03/22 04:17:34;;;;;;;17.65;7.43;;;;;;;9.33;22.43;100614.31;4455505;32;20496;-78
2022/03/22 04:20:00;;;;;;;15.52;7.03;;;;;;;9.42;22.16;100614.97;4441478;32;20110;-80
2022/03/22 04:22:25;;;;;;;17.30;7.43;;;;;;;9.48;22.22;100614.00;4455557;32;20146;-79
2022/03/22 04:24:51;;;;;;;19.30;7.70;;;;;;;9.38;22.21;100617.72;4455468;32;20420;-78
2022/03/22 04:32:44;;;;;;;16.67;7.87;;;;;;;9.06;22.14;100629.75;4455434;32;20140;-78
2022/03/22 04:35:18;;;;;;;17.00;7.15;;;;;;;8.84;22.50;100637.13;4455314;32;20096;-84
2022/03/22 04:37:44;;;;;;;17.45;7.75;;;;;;;9.21;22.27;100626.81;4441454;32;20093;-80
2022/03/22 04:40:10;;;;;;;16.25;7.75;;;;;;;9.10;22.49;100631.41;4441139;32;20102;-80
2022/03/22 04:42:36;;;;;;;16.80;8.07;;;;;;;9.20;22.65;100632.09;4441470;32;20155;-80
2022/03/22 04:45:05;;;;;;;17.37;8.38;;;;;;;9.22;22.65;100640.81;4441286;32;20105;-80
2022/03/22 04:47:32;;;;;;;17.08;7.65;;;;;;;9.31;22.56;100634.50;4455235;32;20650;-81
2022/03/22 04:49:59;;;;;;;18.08;8.32;;;;;;;9.15;22.63;100640.06;4460198;32;20172;-79
2022/03/22 04:57:53;;;;;;;19.62;9.05;;;;;;;9.41;22.78;100634.31;4457151;32;20111;-79
2022/03/22 05:00:20;;;;;;;18.48;8.40;;;;;;;9.43;22.94;100634.28;4469607;32;20364;-79
2022/03/22 05:02:47;;;;;;;17.52;8.40;;;;;;;9.47;23.00;100633.31;4460744;32;20092;-78
2022/03/22 05:05:14;;;;;;;20.23;9.10;;;;;;;9.53;23.06;100637.59;4470393;32;20111;-79
2022/03/22 05:07:39;;;;;;;16.90;8.13;;;;;;;9.55;23.18;100634.03;4443604;32;20110;-81
2022/03/22 05:10:05;;;;;;;17.40;7.97;;;;;;;9.63;23.17;100632.09;4471911;32;20109;-83
2022/03/22 05:12:31;;;;;;;20.17;9.07;;;;;;;9.67;23.08;100639.94;4472601;32;20093;-82
2022/03/22 05:14:57;;;;;;;17.85;8.02;;;;;;;9.72;23.11;100641.56;4458355;32;20088;-80
2022/03/22 05:17:24;;;;;;;18.50;9.23;;;;;;;9.55;22.86;100643.69;4458131;32;20137;-81
2022/03/22 05:19:50;;;;;;;18.27;9.10;;;;;;;9.71;22.74;100639.81;4458227;32;20116;-81
2022/03/22 05:22:17;;;;;;;18.00;8.82;;;;;;;9.87;22.56;100632.47;4471337;32;20496;-81
2022/03/22 05:24:43;;;;;;;17.48;8.45;;;;;;;9.85;23.27;100644.81;4471419;32;20092;-79
2022/03/22 05:27:08;;;;;;;21.17;8.68;;;;;;;9.95;22.65;100640.22;4472436;32;20466;-80
2022/03/22 05:29:34;;;;;;;17.60;7.97;;;;;;;10.13;22.31;100637.13;4472673;32;20115;-80
2022/03/22 05:32:00;;;;;;;18.65;8.80;;;;;;;10.26;22.43;100632.47;4474187;32;20100;-80
2022/03/22 05:34:26;;;;;;;17.25;8.30;;;;;;;10.38;23.28;100631.34;4488043;32;20089;-80
2022/03/22 05:36:52;;;;;;;17.00;7.87;;;;;;;10.38;22.37;100641.88;4463706;32;20144;-79
2022/03/22 05:39:18;;;;;;;17.08;8.38;;;;;;;10.53;22.21;100638.88;4463717;32;20104;-81
2022/03/22 05:41:44;;;;;;;18.75;8.75;;;;;;;10.70;22.25;100641.09;4472117;32;20161;-81
2022/03/22 05:44:12;;;;;;;18.87;8.90;;;;;;;10.81;22.49;100641.66;4457792;32;20164;-81
2022/03/22 05:46:38;;;;;;;17.77;8.95;;;;;;;10.94;22.45;100642.22;4478417;32;20546;-80
2022/03/22 05:49:03;;;;;;;19.27;9.10;;;;;;;11.09;22.19;100640.94;4487803;32;20103;-80
2022/03/22 05:51:29;;;;;;;16.33;8.52;;;;;;;10.92;22.32;100641.38;4468948;32;20076;-80
2022/03/22 05:53:54;;;;;;;20.55;9.75;;;;;;;11.07;21.99;100641.88;4470770;32;20512;-80
2022/03/22 05:56:20;;;;;;;18.77;8.98;;;;;;;11.16;22.53;100650.44;4481017;32;20145;-81
2022/03/22 05:58:45;;;;;;;16.83;8.20;;;;;;;11.45;22.08;100648.72;4473368;32;20132;-80
2022/03/22 06:01:12;;;;;;;21.75;9.52;;;;;;;11.48;21.32;100640.75;4471906;32;20369;-80
2022/03/22 06:03:37;;;;;;;19.40;9.65;;;;;;;11.53;20.94;100648.50;4458063;32;20094;-80
2022/03/22 06:06:03;;;;;;;17.95;10.07;;;;;;;11.47;21.56;100652.19;4471854;32;20138;-81
2022/03/22 06:08:29;;;;;;;19.75;9.90;;;;;;;11.62;20.61;100650.87;4472069;32;20092;-80
2022/03/22 06:10:55;;;;;;;20.50;10.07;;;;;;;11.81;20.48;100653.87;4457154;32;20100;-80
2022/03/22 06:13:21;;;;;;;21.92;10.98;;;;;;;11.92;20.49;100650.94;4456652;32;20092;-81
2022/03/22 06:15:47;;;;;;;19.08;10.02;;;;;;;11.91;20.33;100655.34;4471619;32;20415;-81
2022/03/22 06:18:12;;;;;;;20.10;10.27;;;;;;;12.12;20.18;100653.81;4457733;32;20132;-80
2022/03/22 06:20:41;;;;;;;21.62;11.40;;;;;;;12.11;20.46;100653.87;4457349;32;20451;-81
2022/03/22 06:23:08;;;;;;;22.13;10.95;;;;;;;12.13;20.25;100663.50;4442769;32;20097;-80
2022/03/22 06:25:37;;;;;;;20.37;10.65;;;;;;;12.28;19.83;100656.84;4442277;32;20124;-80
2022/03/22 06:28:04;;;;;;;21.48;10.27;;;;;;;12.32;20.06;100657.63;4444283;32;20133;-79
2022/03/22 06:30:30;;;;;;;23.12;11.60;;;;;;;12.45;20.47;100656.31;4456443;32;20115;-79
2022/03/22 06:32:57;;;;;;;20.77;10.95;;;;;;;12.56;19.88;100664.75;4442076;32;20076;-81
2022/03/22 06:35:24;;;;;;;22.27;10.70;;;;;;;12.53;19.86;100659.56;4456441;32;20081;-80
2022/03/22 06:37:50;;;;;;;20.95;10.63;;;;;;;12.70;20.33;100669.59;4456359;32;20141;-81
2022/03/22 06:40:18;;;;;;;22.30;11.45;;;;;;;12.68;19.96;100660.84;4442169;32;20102;-81
2022/03/22 06:42:43;;;;;;;22.92;11.10;;;;;;;12.75;19.84;100664.16;4442227;32;20140;-81
2022/03/22 06:45:12;;;;;;;24.70;12.18;;;;;;;12.89;19.60;100666.34;4455846;32;20424;-80
2022/03/22 06:47:39;;;;;;;21.35;11.57;;;;;;;12.91;19.56;100662.72;4442428;32;20156;-80
2022/03/22 06:50:09;;;;;;;21.92;11.23;;;;;;;13.04;20.00;100667.56;4442482;32;20127;-80
2022/03/22 06:52:35;;;;;;;20.80;10.95;;;;;;;13.18;20.57;100665.31;4442406;32;20124;-81
2022/03/22 06:55:01;;;;;;;21.12;11.07;;;;;;;13.09;19.67;100669.16;4442243;32;20113;-81
2022/03/22 06:57:28;;;;;;;22.58;11.75;;;;;;;13.26;19.95;100665.06;4442216;32;20116;-80
2022/03/22 06:59:55;;;;;;;20.95;10.70;;;;;;;13.27;19.43;100665.00;4455901;32;20188;-81
2022/03/22 07:02:20;;;;;;;20.40;11.25;;;;;;;13.30;19.70;100667.56;4456086;32;20088;-81
2022/03/22 07:04:46;;;;;;;22.55;11.23;;;;;;;13.40;19.55;100662.78;4471750;32;20180;-80
2022/03/22 07:07:12;;;;;;;22.85;11.73;;;;;;;13.41;19.35;100663.69;4471913;32;20093;-78
2022/03/22 07:09:38;;;;;;;21.52;12.15;;;;;;;13.16;19.29;100672.47;4457671;32;20126;-77
2022/03/22 07:12:03;;;;;;;22.35;11.57;;;;;;;13.37;19.41;100665.56;4471604;32;20367;-89
2022/03/22 07:14:29;;;;;;;21.90;12.40;;;;;;;13.44;19.54;100666.19;4471426;32;20115;-83
2022/03/22 07:16:55;;;;;;;22.25;11.77;;;;;;;13.51;19.95;100668.56;4453264;32;20185;-80
2022/03/22 07:19:22;;;;;;;25.08;12.52;;;;;;;13.54;20.07;100671.13;4453147;32;20157;-80
2022/03/22 07:21:48;;;;;;;21.45;11.20;;;;;;;13.72;19.83;100663.41;4456025;32;20093;-79
2022/03/22 07:24:15;;;;;;;22.45;11.55;;;;;;;13.62;19.72;100675.25;4455984;32;20119;-85
2022/03/22 07:26:41;;;;;;;22.15;11.77;;;;;;;13.68;19.98;100665.31;4441656;32;20109;-77
2022/03/22 07:29:07;;;;;;;22.90;11.12;;;;;;;13.84;20.02;100670.03;4441821;32;20131;-77
2022/03/22 07:31:41;;;;;;;23.48;12.13;;;;;;;13.87;19.76;100665.47;4442141;32;20092;-77
2022/03/22 07:34:15;;;;;;;24.67;12.70;;;;;;;13.68;19.54;100675.03;4441403;32;20116;-78
2022/03/22 07:36:44;;;;;;;25.42;11.93;;;;;;;13.90;19.15;100664.50;4440776;32;20186;-76
2022/03/22 07:39:11;;;;;;;23.35;12.30;;;;;;;13.82;20.09;100674.53;4455712;32;20115;-77
2022/03/22 07:41:37;;;;;;;21.62;12.10;;;;;;;13.95;19.85;100673.12;4456308;32;20097;-76
2022/03/22 07:44:06;;;;;;;22.58;12.00;;;;;;;13.89;19.25;100678.66;4441616;32;20414;-77
2022/03/22 07:46:33;;;;;;;22.40;12.15;;;;;;;14.00;19.11;100670.28;4441625;32;20101;-77
2022/03/22 07:52:57;;;;;;;24.42;12.10;;;;;;;13.99;19.41;100676.53;4441695;32;20097;-77
2022/03/22 07:54:28;;;;;;;27.25;13.18;;;;;;;14.16;19.44;100679.41;4443942;32;20100;-77
2022/03/22 07:56:53;;;;;;;25.05;13.05;;;;;;;14.25;19.83;100668.41;4441800;32;20105;-77
2022/03/22 07:59:18;;;;;;;24.37;12.70;;;;;;;14.32;20.01;100677.84;4455800;32;20116;-77
2022/03/22 08:01:44;;;;;;;24.10;13.27;;;;;;;14.24;19.24;100674.66;4455985;32;20124;-76
2022/03/22 08:04:10;;;;;;;22.80;12.95;;;;;;;14.38;19.75;100674.09;4455515;32;20113;-78
2022/03/22 08:06:35;;;;;;;24.37;14.30;;;;;;;14.38;19.82;100679.41;4460275;32;20367;-77
2022/03/22 08:09:00;;;;;;;25.08;13.50;;;;;;;14.38;19.01;100675.88;4471162;32;20140;-76
2022/03/22 08:11:26;;;;;;;24.85;13.75;;;;;;;14.50;18.48;100668.28;4457052;32;20116;-77
2022/03/22 08:13:51;;;;;;;24.35;13.32;;;;;;;14.43;18.62;100677.44;4471061;32;20085;-77
2022/03/22 08:16:16;;;;;;;22.87;12.75;;;;;;;14.39;18.58;100667.00;4456927;32;20097;-77
2022/03/22 08:18:42;;;;;;;25.65;12.80;;;;;;;14.39;18.61;100675.84;4456985;32;20127;-77
2022/03/22 08:21:07;;;;;;;24.20;13.70;;;;;;;14.47;18.72;100667.56;4471107;32;20165;-76
2022/03/22 08:23:33;;;;;;;24.98;13.98;;;;;;;14.44;18.35;100670.34;4471001;32;20111;-77
2022/03/22 08:25:58;;;;;;;23.55;13.75;;;;;;;14.28;17.96;100667.44;4457795;32;20170;-76
2022/03/22 08:28:24;;;;;;;25.42;13.73;;;;;;;14.27;18.14;100674.50;4441329;32;20090;-77
2022/03/22 08:30:49;;;;;;;24.95;14.13;;;;;;;14.11;18.49;100673.41;4441309;32;20107;-77
2022/03/22 08:33:15;;;;;;;28.58;14.85;;;;;;;14.12;18.77;100669.84;4455379;32;20077;-76
2022/03/22 08:35:45;;;;;;;28.50;14.00;;;;;;;14.16;18.68;100666.12;4455339;32;20390;-77
2022/03/22 08:38:11;;;;;;;25.08;14.23;;;;;;;14.14;18.74;100666.19;4455375;32;20172;-77
2022/03/22 08:40:37;;;;;;;25.67;13.70;;;;;;;14.20;18.91;100661.56;4441177;32;20455;-76
2022/03/22 08:43:06;;;;;;;26.30;14.15;;;;;;;14.17;19.19;100662.56;4445763;32;20103;-77
2022/03/22 08:45:33;;;;;;;26.62;14.27;;;;;;;14.31;19.21;100659.34;4470422;32;20115;-77
2022/03/22 08:48:00;;;;;;;23.60;13.25;;;;;;;14.30;19.22;100662.94;4470855;32;20447;-77
2022/03/22 08:50:26;;;;;;;22.73;12.48;;;;;;;14.42;18.92;100657.13;4456922;32;20088;-77
2022/03/22 08:52:54;;;;;;;27.10;13.75;;;;;;;14.43;18.17;100653.56;4443978;32;20137;-77
2022/03/22 08:55:20;;;;;;;23.83;12.90;;;;;;;14.19;18.63;100659.84;4455060;32;20123;-77
2022/03/22 08:57:47;;;;;;;24.37;12.52;;;;;;;14.25;18.65;100655.16;4441198;32;20123;-76
2022/03/22 09:00:14;;;;;;;27.10;13.73;;;;;;;14.13;18.58;100651.19;4455124;32;20080;-78
2022/03/22 09:02:40;;;;;;;24.00;13.55;;;;;;;14.19;18.66;100659.84;4445887;32;160873;-77
2022/03/22 09:07:51;;;;;;;26.05;12.68;;;;;;;14.42;18.73;100651.81;4455010;32;20115;-76
2022/03/22 09:10:23;;;;;;;24.25;13.35;;;;;;;14.36;18.93;100644.97;4440877;32;20424;-76
2022/03/22 09:12:49;;;;;;;25.77;13.18;;;;;;;14.25;19.08;100646.34;4454880;32;20454;-78
2022/03/22 09:15:18;;;;;;;23.17;12.35;;;;;;;14.46;18.50;100652.56;4440834;32;20101;-76
2022/03/22 09:17:44;;;;;;;26.90;13.05;;;;;;;14.28;18.51;100647.09;4454910;32;20093;-77
2022/03/22 09:20:14;;;;;;;24.80;12.90;;;;;;;14.46;18.78;100644.63;4448641;32;20123;-77
2022/03/22 09:22:40;;;;;;;22.65;12.85;;;;;;;14.40;18.92;100636.91;4470264;32;20149;-77
2022/03/22 09:25:07;;;;;;;21.92;13.43;;;;;;;14.55;18.83;100638.94;4453024;32;20159;-76
2022/03/22 09:27:33;;;;;;;22.87;12.63;;;;;;;14.57;18.57;100641.56;4454504;32;20105;-78
2022/03/22 09:29:58;;;;;;;25.10;12.77;;;;;;;14.58;18.61;100632.66;4454711;32;20133;-76
2022/03/22 09:32:24;;;;;;;22.00;11.40;;;;;;;14.60;18.99;100631.66;4454651;32;20101;-77
2022/03/22 09:34:49;;;;;;;21.40;11.23;;;;;;;14.65;18.66;100627.03;4454594;32;20372;-77
2022/03/22 09:37:16;;;;;;;23.98;11.95;;;;;;;14.47;18.30;100633.94;4440619;32;20381;-77
2022/03/22 09:39:43;;;;;;;23.07;12.20;;;;;;;14.72;18.30;100628.50;4454621;32;20192;-77
2022/03/22 09:42:09;;;;;;;22.02;11.50;;;;;;;14.72;18.19;100635.62;4440367;32;20161;-76
2022/03/22 09:44:35;;;;;;;25.12;11.82;;;;;;;14.72;18.33;100631.16;4427533;32;20165;-77
2022/03/22 09:47:03;;;;;;;23.10;12.25;;;;;;;14.69;18.31;100631.28;4454715;32;20148;-77
2022/03/22 09:49:29;;;;;;;21.90;11.82;;;;;;;14.89;18.34;100627.81;4440774;32;20123;-77
2022/03/22 09:51:55;;;;;;;23.25;12.02;;;;;;;14.90;18.22;100616.25;4454502;32;20349;-76
2022/03/22 09:54:25;;;;;;;21.92;12.00;;;;;;;14.93;18.44;100616.13;4440647;32;20380;-76
2022/03/22 09:56:51;;;;;;;21.85;10.98;;;;;;;14.96;18.47;100617.78;4429092;32;20113;-76
2022/03/22 09:59:20;;;;;;;22.25;10.88;;;;;;;15.00;17.66;100616.69;4458986;32;20225;-77
2022/03/22 10:01:45;;;;;;;23.40;10.57;;;;;;;15.02;17.68;100616.66;4472360;32;20478;-77
2022/03/22 10:04:13;;;;;;;25.55;11.02;;;;;;;15.07;17.93;100615.53;4471875;32;20108;-76
2022/03/22 10:06:44;;;;;;;;;;;;;;;15.02;18.37;100617.50;4472482;32;20100;-78
2022/03/22 10:09:09;;;;;;;21.70;11.52;;;;;;;15.13;18.22;100601.97;4472154;32;19991;-77
2022/03/22 10:11:36;;;;;;;22.40;11.12;;;;;;;15.27;17.94;100606.66;4472033;32;20089;-76
2022/03/22 10:14:03;;;;;;;21.97;11.17;;;;;;;15.26;18.00;100604.06;4471956;32;20093;-77
2022/03/22 10:16:28;;;;;;;22.67;11.32;;;;;;;15.30;17.80;100597.72;4457743;32;20160;-77
2022/03/22 10:18:53;;;;;;;21.10;10.45;;;;;;;15.29;17.62;100595.97;4447503;32;20093;-76
2022/03/22 10:21:19;;;;;;;20.17;10.38;;;;;;;15.43;17.45;100587.38;4456336;32;20089;-76
2022/03/22 10:23:49;;;;;;;22.85;11.07;;;;;;;15.39;17.31;100596.41;4442288;32;20109;-77
2022/03/22 10:26:14;;;;;;;19.12;9.55;;;;;;;15.44;17.38;100595.28;4456300;32;20085;-79
2022/03/22 10:28:49;;;;;;;19.98;10.05;;;;;;;15.40;16.99;100592.84;4442268;32;20515;-76
2022/03/22 10:31:16;;;;;;;21.23;9.68;;;;;;;15.51;16.83;100590.53;4456498;32;20514;-76
2022/03/22 10:33:52;;;;;;;23.20;10.75;;;;;;;15.59;17.29;100584.84;4442787;32;20157;-78
2022/03/22 10:36:21;;;;;;;20.58;10.30;;;;;;;15.66;16.97;100586.31;4456414;32;20123;-78
2022/03/22 10:38:54;;;;;;;21.40;10.60;;;;;;;15.77;16.72;100578.72;4442332;32;20093;-78
2022/03/22 10:41:28;;;;;;;21.70;10.80;;;;;;;15.78;17.10;100576.94;4456303;32;20084;-77
2022/03/22 10:44:14;;;;;;;21.10;9.85;;;;;;;15.81;17.55;100576.78;4442052;32;20116;-77
2022/03/22 10:46:42;;;;;;;20.17;9.73;;;;;;;15.88;17.21;100568.44;4456579;32;20135;-77
2022/03/22 10:49:09;;;;;;;19.60;10.15;;;;;;;15.95;17.11;100562.84;4442641;32;20093;-76
2022/03/22 10:51:45;;;;;;;;;;;;;;;16.04;17.24;100573.88;4443059;32;20089;-76
2022/03/22 10:54:12;;;;;;;18.50;8.52;;;;;;;16.03;16.44;100569.50;4472019;32;20666;-78
2022/03/22 10:56:48;;;;;;;18.50;8.50;;;;;;;16.03;16.56;100555.34;4471989;32;20202;-77
2022/03/22 10:59:15;;;;;;;21.33;9.95;;;;;;;16.05;16.42;100553.47;4471684;32;20084;-77
2022/03/22 11:01:43;;;;;;;21.40;9.95;;;;;;;16.04;16.43;100557.06;4471760;32;20348;-77
2022/03/22 11:04:09;;;;;;;19.87;8.30;;;;;;;16.20;16.39;100554.50;4471658;32;20147;-76
2022/03/22 11:06:35;;;;;;;19.15;8.73;;;;;;;16.17;15.37;100552.00;4455907;32;20143;-76
2022/03/22 11:09:01;;;;;;;16.48;8.48;;;;;;;16.19;15.65;100550.16;4457399;32;20499;-77
2022/03/22 11:11:30;;;;;;;16.73;8.55;;;;;;;16.23;15.57;100541.09;4455991;32;20077;-76
2022/03/22 11:13:55;;;;;;;20.05;7.75;;;;;;;16.36;15.57;100538.66;4442123;32;20694;-77
2022/03/22 11:16:22;;;;;;;13.62;6.95;;;;;;;16.33;15.59;100533.50;4441771;32;20111;-77
2022/03/22 11:18:48;;;;;;;16.50;7.53;;;;;;;16.40;15.50;100530.44;4455915;32;20092;-77
2022/03/22 11:21:19;;;;;;;16.25;7.65;;;;;;;16.53;15.23;100522.69;4456049;32;20134;-77
2022/03/22 11:23:47;;;;;;;16.35;7.78;;;;;;;16.54;15.01;100524.41;4429560;32;20524;-76
2022/03/22 11:26:17;;;;;;;18.50;8.20;;;;;;;16.35;15.59;100532.47;4471320;32;20108;-78
2022/03/22 11:28:44;;;;;;;25.00;9.38;;;;;;;16.57;15.60;100510.94;4457273;32;20108;-78
2022/03/22 11:31:13;;;;;;;16.35;7.72;;;;;;;16.47;15.42;100515.88;4470336;32;20101;-77
2022/03/22 11:36:28;;;;;;;14.48;7.25;;;;;;;16.53;15.39;100506.72;4459606;32;20564;-76
2022/03/22 11:38:57;;;;;;;14.73;7.32;;;;;;;16.44;15.55;100518.72;4457721;32;20119;-77
2022/03/22 11:44:20;;;;;;;14.38;7.22;;;;;;;16.62;15.46;100500.06;4456140;32;20139;-77
2022/03/22 11:46:59;;;;;;;14.93;7.55;;;;;;;16.76;15.89;100502.00;4455926;32;20116;-76
2022/03/22 11:49:25;;;;;;;17.70;8.63;;;;;;;16.77;15.90;100499.28;4441852;32;20140;-77
2022/03/22 11:52:11;;;;;;;15.75;7.68;;;;;;;16.79;15.78;100510.69;4455678;32;20093;-77